Hauptseite
METAR-TAF:

METAR-TAF

Flughäfen :

Uherské Hradiště, Tschechien

Breite: 49-01-46N, Länge: 017-26-23E, Höhe: 177 m

Beobachtung

Neuester Wetterbericht von vor 2 Stunden und 3 Minuten, um 18:00 UTC
Wind 3 kt aus West/Südwest, variierte zwischen Süd und West/Nordwest
Temperatur 18°C
Luftfeuchtigkeit 64%
Luftdruck 1004 hPa
Sichtweite 10 km oder mehr
Leicht bewölkt in der Höhe von 6000 ft, Kumulonimbus.
Leicht bewölkt in der Höhe von 6300 ft
Leicht bewölkt in der Höhe von 8300 ft
Aufgelockert bewölkt in der Höhe von 20000 ft

METAR: LKKU 301800Z 25003KT 190V290 9999 FEW060CB FEW063 FEW083 SCT200 18/11 Q1004

Zeit: 22:03 (20:03 UTC)


TAF: fehlend

Wetterbeobachtungen und Prognosen von mehr als 4000 Flughäfen (METAR und TAF Bericht).

Die verfügbaren Stationen werden durch gelbe und rote Markierungen auf der Karte dargestellt.

Führen Sie die Maus auf sie, um den Namen der Station zu sehen.

Darauf klicken, um die Beobachtung von Wetterbeobachtungen und Prognosen zu sehen.

Um die Karte zu ändern : klicken Sie auf den grünen Tasten mit einem schwarzen Kreuz Zum Vergrößern, auf den grünen Button mit einem Gedankenstrich zu verkleinern, oder auf die grünen Pfeile für benachbarte Karten.


METAR-TAF: